sensor_id;sensor_type;location;lat;lon;timestamp;temperature;humidity
54192;DHT22;40101;53.002;6.488;2023-12-07T00:01:49;2.20;99.90
54192;DHT22;40101;53.002;6.488;2023-12-07T00:04:15;2.30;99.90
54192;DHT22;40101;53.002;6.488;2023-12-07T00:06:41;2.20;99.90
54192;DHT22;40101;53.002;6.488;2023-12-07T00:09:07;2.20;99.90
54192;DHT22;40101;53.002;6.488;2023-12-07T00:14:02;2.20;99.90
54192;DHT22;40101;53.002;6.488;2023-12-07T00:16:28;2.20;99.90
54192;DHT22;40101;53.002;6.488;2023-12-07T00:18:53;2.20;99.90
54192;DHT22;40101;53.002;6.488;2023-12-07T00:21:19;2.30;99.90
54192;DHT22;40101;53.002;6.488;2023-12-07T00:23:45;2.30;99.90
54192;DHT22;40101;53.002;6.488;2023-12-07T00:26:10;2.20;99.90
54192;DHT22;40101;53.002;6.488;2023-12-07T00:28:36;2.20;99.90
54192;DHT22;40101;53.002;6.488;2023-12-07T00:31:02;2.20;99.90
54192;DHT22;40101;53.002;6.488;2023-12-07T00:33:28;2.20;99.90
54192;DHT22;40101;53.002;6.488;2023-12-07T00:35:53;2.20;99.90
54192;DHT22;40101;53.002;6.488;2023-12-07T00:38:19;2.20;99.90
54192;DHT22;40101;53.002;6.488;2023-12-07T00:40:46;2.20;99.90
54192;DHT22;40101;53.002;6.488;2023-12-07T00:43:12;2.20;99.90
54192;DHT22;40101;53.002;6.488;2023-12-07T00:45:37;2.20;99.90
54192;DHT22;40101;53.002;6.488;2023-12-07T00:48:04;2.20;99.90
54192;DHT22;40101;53.002;6.488;2023-12-07T00:50:30;2.20;99.90
54192;DHT22;40101;53.002;6.488;2023-12-07T00:52:55;2.20;99.90
54192;DHT22;40101;53.002;6.488;2023-12-07T00:55:21;2.30;99.90
54192;DHT22;40101;53.002;6.488;2023-12-07T00:57:47;2.30;99.90
54192;DHT22;40101;53.002;6.488;2023-12-07T01:00:12;2.20;99.90
54192;DHT22;40101;53.002;6.488;2023-12-07T01:02:38;2.20;99.90
54192;DHT22;40101;53.002;6.488;2023-12-07T01:05:04;2.20;99.90
54192;DHT22;40101;53.002;6.488;2023-12-07T01:07:31;2.20;99.90
54192;DHT22;40101;53.002;6.488;2023-12-07T01:09:56;2.20;99.90
54192;DHT22;40101;53.002;6.488;2023-12-07T01:12:22;2.20;99.90
54192;DHT22;40101;53.002;6.488;2023-12-07T01:14:47;2.20;99.90
54192;DHT22;40101;53.002;6.488;2023-12-07T01:17:13;2.20;99.90
54192;DHT22;40101;53.002;6.488;2023-12-07T01:19:39;2.20;99.90
54192;DHT22;40101;53.002;6.488;2023-12-07T01:22:04;2.20;99.90
54192;DHT22;40101;53.002;6.488;2023-12-07T01:24:30;2.20;99.90
54192;DHT22;40101;53.002;6.488;2023-12-07T01:26:55;2.30;99.90
54192;DHT22;40101;53.002;6.488;2023-12-07T01:29:21;2.20;99.90
54192;DHT22;40101;53.002;6.488;2023-12-07T01:31:47;2.20;99.90
54192;DHT22;40101;53.002;6.488;2023-12-07T01:34:12;2.40;99.90
54192;DHT22;40101;53.002;6.488;2023-12-07T01:36:38;2.20;99.90
54192;DHT22;40101;53.002;6.488;2023-12-07T01:39:05;2.20;99.90
54192;DHT22;40101;53.002;6.488;2023-12-07T01:41:31;2.20;99.90
54192;DHT22;40101;53.002;6.488;2023-12-07T01:43:56;2.20;99.90
54192;DHT22;40101;53.002;6.488;2023-12-07T01:46:22;2.20;99.90
54192;DHT22;40101;53.002;6.488;2023-12-07T01:48:48;2.20;99.90
54192;DHT22;40101;53.002;6.488;2023-12-07T01:51:15;2.20;99.90
54192;DHT22;40101;53.002;6.488;2023-12-07T01:53:42;2.30;99.90
54192;DHT22;40101;53.002;6.488;2023-12-07T01:56:08;2.30;99.90
54192;DHT22;40101;53.002;6.488;2023-12-07T01:58:35;2.30;99.90
54192;DHT22;40101;53.002;6.488;2023-12-07T02:01:02;2.20;99.90
54192;DHT22;40101;53.002;6.488;2023-12-07T02:03:29;2.20;99.90
54192;DHT22;40101;53.002;6.488;2023-12-07T02:05:55;2.20;99.90
54192;DHT22;40101;53.002;6.488;2023-12-07T02:08:23;2.10;99.90
54192;DHT22;40101;53.002;6.488;2023-12-07T02:10:48;2.10;99.90
54192;DHT22;40101;53.002;6.488;2023-12-07T02:13:14;2.20;99.90
54192;DHT22;40101;53.002;6.488;2023-12-07T02:15:40;1.90;99.90
54192;DHT22;40101;53.002;6.488;2023-12-07T02:23:18;1.80;99.90
54192;DHT22;40101;53.002;6.488;2023-12-07T02:25:54;1.70;99.90
54192;DHT22;40101;53.002;6.488;2023-12-07T02:28:20;2.00;99.90
54192;DHT22;40101;53.002;6.488;2023-12-07T02:30:46;1.70;99.90
54192;DHT22;40101;53.002;6.488;2023-12-07T02:33:12;1.90;99.90
54192;DHT22;40101;53.002;6.488;2023-12-07T02:35:38;1.70;99.90
54192;DHT22;40101;53.002;6.488;2023-12-07T02:38:06;1.70;99.90
54192;DHT22;40101;53.002;6.488;2023-12-07T02:40:33;1.70;99.90
54192;DHT22;40101;53.002;6.488;2023-12-07T02:43:00;1.80;99.90
54192;DHT22;40101;53.002;6.488;2023-12-07T02:45:27;1.80;99.90
54192;DHT22;40101;53.002;6.488;2023-12-07T02:47:53;1.70;99.90
54192;DHT22;40101;53.002;6.488;2023-12-07T02:50:19;1.80;99.90
54192;DHT22;40101;53.002;6.488;2023-12-07T02:52:45;1.80;99.90
54192;DHT22;40101;53.002;6.488;2023-12-07T02:55:11;1.80;99.90
54192;DHT22;40101;53.002;6.488;2023-12-07T02:57:36;1.80;99.90
54192;DHT22;40101;53.002;6.488;2023-12-07T03:00:04;1.80;99.90
54192;DHT22;40101;53.002;6.488;2023-12-07T03:02:37;1.80;99.90
54192;DHT22;40101;53.002;6.488;2023-12-07T03:05:04;1.80;99.90
54192;DHT22;40101;53.002;6.488;2023-12-07T03:07:30;1.80;99.90
54192;DHT22;40101;53.002;6.488;2023-12-07T03:09:56;1.80;99.90
54192;DHT22;40101;53.002;6.488;2023-12-07T03:12:21;1.70;99.90
54192;DHT22;40101;53.002;6.488;2023-12-07T03:14:48;1.70;99.90
54192;DHT22;40101;53.002;6.488;2023-12-07T03:17:14;1.60;99.90
54192;DHT22;40101;53.002;6.488;2023-12-07T03:19:40;1.60;99.90
54192;DHT22;40101;53.002;6.488;2023-12-07T03:22:07;1.60;99.90
54192;DHT22;40101;53.002;6.488;2023-12-07T03:24:36;1.50;99.90
54192;DHT22;40101;53.002;6.488;2023-12-07T03:27:02;1.40;99.90
54192;DHT22;40101;53.002;6.488;2023-12-07T03:29:28;1.40;99.90
54192;DHT22;40101;53.002;6.488;2023-12-07T03:31:53;1.30;99.90
54192;DHT22;40101;53.002;6.488;2023-12-07T03:34:19;1.20;99.90
54192;DHT22;40101;53.002;6.488;2023-12-07T03:36:48;1.20;99.90
54192;DHT22;40101;53.002;6.488;2023-12-07T03:39:15;1.10;99.90
54192;DHT22;40101;53.002;6.488;2023-12-07T03:41:41;1.10;99.90
54192;DHT22;40101;53.002;6.488;2023-12-07T03:44:07;1.00;99.90
54192;DHT22;40101;53.002;6.488;2023-12-07T03:46:33;1.00;99.90
54192;DHT22;40101;53.002;6.488;2023-12-07T03:48:58;0.90;99.90
54192;DHT22;40101;53.002;6.488;2023-12-07T03:51:27;0.90;99.90
54192;DHT22;40101;53.002;6.488;2023-12-07T03:53:56;0.80;99.90
54192;DHT22;40101;53.002;6.488;2023-12-07T03:56:26;0.80;99.90
54192;DHT22;40101;53.002;6.488;2023-12-07T03:58:51;0.80;99.90
54192;DHT22;40101;53.002;6.488;2023-12-07T04:01:17;0.70;99.90
54192;DHT22;40101;53.002;6.488;2023-12-07T04:03:47;0.70;99.90
54192;DHT22;40101;53.002;6.488;2023-12-07T04:06:12;0.60;99.90
54192;DHT22;40101;53.002;6.488;2023-12-07T04:08:38;0.60;99.90
54192;DHT22;40101;53.002;6.488;2023-12-07T04:11:04;0.60;99.90
54192;DHT22;40101;53.002;6.488;2023-12-07T04:13:29;0.60;99.90
54192;DHT22;40101;53.002;6.488;2023-12-07T04:15:55;0.60;99.90
54192;DHT22;40101;53.002;6.488;2023-12-07T04:18:21;0.60;99.90
54192;DHT22;40101;53.002;6.488;2023-12-07T04:20:46;0.60;99.90
54192;DHT22;40101;53.002;6.488;2023-12-07T04:23:12;0.60;99.90
54192;DHT22;40101;53.002;6.488;2023-12-07T04:25:38;0.60;99.90
54192;DHT22;40101;53.002;6.488;2023-12-07T04:28:03;0.60;99.90
54192;DHT22;40101;53.002;6.488;2023-12-07T04:30:29;0.60;99.90
54192;DHT22;40101;53.002;6.488;2023-12-07T04:32:54;0.60;99.90
54192;DHT22;40101;53.002;6.488;2023-12-07T04:35:21;0.60;99.90
54192;DHT22;40101;53.002;6.488;2023-12-07T04:37:47;0.60;99.90
54192;DHT22;40101;53.002;6.488;2023-12-07T04:40:12;0.60;99.90
54192;DHT22;40101;53.002;6.488;2023-12-07T04:42:38;0.50;99.90
54192;DHT22;40101;53.002;6.488;2023-12-07T04:45:04;0.50;99.90
54192;DHT22;40101;53.002;6.488;2023-12-07T04:47:30;0.40;99.90
54192;DHT22;40101;53.002;6.488;2023-12-07T04:49:57;0.40;99.90
54192;DHT22;40101;53.002;6.488;2023-12-07T04:52:22;0.30;99.90
54192;DHT22;40101;53.002;6.488;2023-12-07T04:54:48;0.30;99.90
54192;DHT22;40101;53.002;6.488;2023-12-07T04:57:14;0.30;99.90
54192;DHT22;40101;53.002;6.488;2023-12-07T04:59:40;0.20;99.90
54192;DHT22;40101;53.002;6.488;2023-12-07T05:02:06;0.20;99.90
54192;DHT22;40101;53.002;6.488;2023-12-07T05:04:31;0.20;99.90
54192;DHT22;40101;53.002;6.488;2023-12-07T05:06:59;0.10;99.90
54192;DHT22;40101;53.002;6.488;2023-12-07T05:09:25;0.10;99.90
54192;DHT22;40101;53.002;6.488;2023-12-07T05:11:51;0.10;99.90
54192;DHT22;40101;53.002;6.488;2023-12-07T05:14:17;0.10;99.90
54192;DHT22;40101;53.002;6.488;2023-12-07T05:16:42;0.10;99.90
54192;DHT22;40101;53.002;6.488;2023-12-07T05:19:08;0.10;99.90
54192;DHT22;40101;53.002;6.488;2023-12-07T05:21:34;0.10;99.90
54192;DHT22;40101;53.002;6.488;2023-12-07T05:24:01;0.00;99.90
54192;DHT22;40101;53.002;6.488;2023-12-07T05:26:26;0.00;99.90
54192;DHT22;40101;53.002;6.488;2023-12-07T05:28:52;0.00;99.90
54192;DHT22;40101;53.002;6.488;2023-12-07T05:31:18;0.00;99.90
54192;DHT22;40101;53.002;6.488;2023-12-07T05:33:44;0.00;99.90
54192;DHT22;40101;53.002;6.488;2023-12-07T05:36:10;0.00;99.90
54192;DHT22;40101;53.002;6.488;2023-12-07T05:38:35;0.00;99.90
54192;DHT22;40101;53.002;6.488;2023-12-07T05:41:01;0.00;99.90
54192;DHT22;40101;53.002;6.488;2023-12-07T05:43:27;0.00;99.90
54192;DHT22;40101;53.002;6.488;2023-12-07T05:45:52;0.00;99.90
54192;DHT22;40101;53.002;6.488;2023-12-07T05:48:18;0.00;99.90
54192;DHT22;40101;53.002;6.488;2023-12-07T05:50:43;0.00;99.90
54192;DHT22;40101;53.002;6.488;2023-12-07T05:53:09;0.00;99.90
54192;DHT22;40101;53.002;6.488;2023-12-07T05:55:36;0.00;99.90
54192;DHT22;40101;53.002;6.488;2023-12-07T05:58:01;0.00;99.90
54192;DHT22;40101;53.002;6.488;2023-12-07T06:00:29;0.00;99.90
54192;DHT22;40101;53.002;6.488;2023-12-07T06:02:54;0.00;99.90
54192;DHT22;40101;53.002;6.488;2023-12-07T06:05:20;0.00;99.90
54192;DHT22;40101;53.002;6.488;2023-12-07T06:07:46;0.00;99.90
54192;DHT22;40101;53.002;6.488;2023-12-07T06:10:12;-0.10;99.90
54192;DHT22;40101;53.002;6.488;2023-12-07T06:12:38;0.00;99.90
54192;DHT22;40101;53.002;6.488;2023-12-07T06:15:05;-0.10;99.90
54192;DHT22;40101;53.002;6.488;2023-12-07T06:17:33;-0.10;99.90
54192;DHT22;40101;53.002;6.488;2023-12-07T06:19:59;-0.10;99.90
54192;DHT22;40101;53.002;6.488;2023-12-07T06:22:25;-0.10;99.90
54192;DHT22;40101;53.002;6.488;2023-12-07T06:24:50;-0.10;99.90
54192;DHT22;40101;53.002;6.488;2023-12-07T06:27:16;-0.10;99.90
54192;DHT22;40101;53.002;6.488;2023-12-07T06:29:41;0.00;99.90
54192;DHT22;40101;53.002;6.488;2023-12-07T06:32:07;0.00;99.90
54192;DHT22;40101;53.002;6.488;2023-12-07T06:34:33;-0.10;99.90
54192;DHT22;40101;53.002;6.488;2023-12-07T06:36:58;-0.10;99.90
54192;DHT22;40101;53.002;6.488;2023-12-07T06:39:24;-0.10;99.90
54192;DHT22;40101;53.002;6.488;2023-12-07T06:41:49;0.00;99.90
54192;DHT22;40101;53.002;6.488;2023-12-07T06:44:15;-0.10;99.90
54192;DHT22;40101;53.002;6.488;2023-12-07T06:46:41;0.00;99.90
54192;DHT22;40101;53.002;6.488;2023-12-07T06:49:06;-0.10;99.90
54192;DHT22;40101;53.002;6.488;2023-12-07T06:51:32;-0.10;99.90
54192;DHT22;40101;53.002;6.488;2023-12-07T06:53:59;-0.20;99.90
54192;DHT22;40101;53.002;6.488;2023-12-07T06:56:24;-0.20;99.90
54192;DHT22;40101;53.002;6.488;2023-12-07T06:58:50;-0.30;99.90
54192;DHT22;40101;53.002;6.488;2023-12-07T07:01:16;-0.30;99.90
54192;DHT22;40101;53.002;6.488;2023-12-07T07:03:42;-0.10;99.90
54192;DHT22;40101;53.002;6.488;2023-12-07T07:06:08;-0.30;99.90
54192;DHT22;40101;53.002;6.488;2023-12-07T07:08:34;-0.30;99.90
54192;DHT22;40101;53.002;6.488;2023-12-07T07:11:00;-0.20;99.90
54192;DHT22;40101;53.002;6.488;2023-12-07T07:13:25;-0.20;99.90
54192;DHT22;40101;53.002;6.488;2023-12-07T07:15:51;-0.20;99.90
54192;DHT22;40101;53.002;6.488;2023-12-07T07:18:17;-0.20;99.90
54192;DHT22;40101;53.002;6.488;2023-12-07T07:20:42;-0.20;99.90
54192;DHT22;40101;53.002;6.488;2023-12-07T07:23:08;-0.20;99.90
54192;DHT22;40101;53.002;6.488;2023-12-07T07:25:34;-0.20;99.90
54192;DHT22;40101;53.002;6.488;2023-12-07T07:28:00;-0.20;99.90
54192;DHT22;40101;53.002;6.488;2023-12-07T07:30:26;-0.20;99.90
54192;DHT22;40101;53.002;6.488;2023-12-07T07:32:52;-0.20;99.90
54192;DHT22;40101;53.002;6.488;2023-12-07T07:35:17;-0.20;99.90
54192;DHT22;40101;53.002;6.488;2023-12-07T07:37:43;-0.20;99.90
54192;DHT22;40101;53.002;6.488;2023-12-07T07:40:09;-0.10;99.90
54192;DHT22;40101;53.002;6.488;2023-12-07T07:42:38;-0.10;99.90
54192;DHT22;40101;53.002;6.488;2023-12-07T07:45:09;0.00;99.90
54192;DHT22;40101;53.002;6.488;2023-12-07T07:47:35;0.00;99.90
54192;DHT22;40101;53.002;6.488;2023-12-07T07:50:00;0.10;99.90
54192;DHT22;40101;53.002;6.488;2023-12-07T07:52:33;0.10;99.90
54192;DHT22;40101;53.002;6.488;2023-12-07T07:55:00;0.20;99.90
54192;DHT22;40101;53.002;6.488;2023-12-07T07:57:28;0.20;99.90
54192;DHT22;40101;53.002;6.488;2023-12-07T07:59:54;0.30;99.90
54192;DHT22;40101;53.002;6.488;2023-12-07T08:02:20;0.30;99.90
54192;DHT22;40101;53.002;6.488;2023-12-07T08:04:47;0.40;99.90
54192;DHT22;40101;53.002;6.488;2023-12-07T08:07:13;0.40;99.90
54192;DHT22;40101;53.002;6.488;2023-12-07T08:09:38;0.50;99.90
54192;DHT22;40101;53.002;6.488;2023-12-07T08:12:05;0.50;99.90
54192;DHT22;40101;53.002;6.488;2023-12-07T08:14:32;0.60;99.90
54192;DHT22;40101;53.002;6.488;2023-12-07T08:16:57;0.60;99.90
54192;DHT22;40101;53.002;6.488;2023-12-07T08:19:23;0.90;99.90
54192;DHT22;40101;53.002;6.488;2023-12-07T08:21:50;1.20;99.90
54192;DHT22;40101;53.002;6.488;2023-12-07T08:24:16;2.00;99.90
54192;DHT22;40101;53.002;6.488;2023-12-07T08:26:42;2.70;99.90
54192;DHT22;40101;53.002;6.488;2023-12-07T08:29:08;3.30;99.90
54192;DHT22;40101;53.002;6.488;2023-12-07T08:31:33;3.80;99.90
54192;DHT22;40101;53.002;6.488;2023-12-07T08:33:59;4.10;99.90
54192;DHT22;40101;53.002;6.488;2023-12-07T08:36:26;4.50;99.90
54192;DHT22;40101;53.002;6.488;2023-12-07T08:38:52;5.00;99.90
54192;DHT22;40101;53.002;6.488;2023-12-07T08:41:18;5.60;99.90
54192;DHT22;40101;53.002;6.488;2023-12-07T08:43:44;6.00;99.90
54192;DHT22;40101;53.002;6.488;2023-12-07T08:46:09;6.30;99.90
54192;DHT22;40101;53.002;6.488;2023-12-07T08:48:38;6.50;99.90
54192;DHT22;40101;53.002;6.488;2023-12-07T08:51:04;6.30;99.90
54192;DHT22;40101;53.002;6.488;2023-12-07T08:53:30;6.20;99.90
54192;DHT22;40101;53.002;6.488;2023-12-07T08:55:56;6.10;99.90
54192;DHT22;40101;53.002;6.488;2023-12-07T08:58:21;5.50;99.90
54192;DHT22;40101;53.002;6.488;2023-12-07T09:00:47;5.30;99.90
54192;DHT22;40101;53.002;6.488;2023-12-07T09:03:13;5.00;99.90
54192;DHT22;40101;53.002;6.488;2023-12-07T09:05:39;4.60;99.90
54192;DHT22;40101;53.002;6.488;2023-12-07T09:08:05;4.50;99.90
54192;DHT22;40101;53.002;6.488;2023-12-07T09:10:32;5.00;99.90
54192;DHT22;40101;53.002;6.488;2023-12-07T09:12:57;5.00;99.90
54192;DHT22;40101;53.002;6.488;2023-12-07T09:15:23;5.40;99.90
54192;DHT22;40101;53.002;6.488;2023-12-07T09:17:49;5.40;99.90
54192;DHT22;40101;53.002;6.488;2023-12-07T09:20:15;5.30;99.90
54192;DHT22;40101;53.002;6.488;2023-12-07T09:22:44;5.20;99.90
54192;DHT22;40101;53.002;6.488;2023-12-07T09:25:11;4.90;99.90
54192;DHT22;40101;53.002;6.488;2023-12-07T09:27:38;5.40;99.90
54192;DHT22;40101;53.002;6.488;2023-12-07T09:30:08;5.80;99.90
54192;DHT22;40101;53.002;6.488;2023-12-07T09:32:40;6.40;99.90
54192;DHT22;40101;53.002;6.488;2023-12-07T09:35:06;6.70;99.90
54192;DHT22;40101;53.002;6.488;2023-12-07T09:37:33;7.00;99.90
54192;DHT22;40101;53.002;6.488;2023-12-07T09:39:59;7.10;99.90
54192;DHT22;40101;53.002;6.488;2023-12-07T09:42:26;7.40;99.90
54192;DHT22;40101;53.002;6.488;2023-12-07T09:44:52;7.50;99.90
54192;DHT22;40101;53.002;6.488;2023-12-07T09:47:18;7.70;99.90
54192;DHT22;40101;53.002;6.488;2023-12-07T09:49:44;7.90;99.90
54192;DHT22;40101;53.002;6.488;2023-12-07T09:52:10;8.10;99.90
54192;DHT22;40101;53.002;6.488;2023-12-07T09:54:40;8.30;99.90
54192;DHT22;40101;53.002;6.488;2023-12-07T09:57:07;8.60;99.90
54192;DHT22;40101;53.002;6.488;2023-12-07T09:59:35;8.70;99.90
54192;DHT22;40101;53.002;6.488;2023-12-07T10:02:01;8.60;99.90
54192;DHT22;40101;53.002;6.488;2023-12-07T10:04:27;8.70;99.90
54192;DHT22;40101;53.002;6.488;2023-12-07T10:06:53;8.80;99.90
54192;DHT22;40101;53.002;6.488;2023-12-07T10:09:19;9.00;99.90
54192;DHT22;40101;53.002;6.488;2023-12-07T10:11:47;9.10;99.90
54192;DHT22;40101;53.002;6.488;2023-12-07T10:14:13;9.20;99.90
54192;DHT22;40101;53.002;6.488;2023-12-07T10:16:52;8.40;99.90
54192;DHT22;40101;53.002;6.488;2023-12-07T10:19:20;7.30;99.90
54192;DHT22;40101;53.002;6.488;2023-12-07T10:21:51;6.60;99.90
54192;DHT22;40101;53.002;6.488;2023-12-07T10:24:22;6.00;99.90
54192;DHT22;40101;53.002;6.488;2023-12-07T10:26:49;5.60;99.90
54192;DHT22;40101;53.002;6.488;2023-12-07T10:29:17;5.30;99.90
54192;DHT22;40101;53.002;6.488;2023-12-07T10:31:44;5.00;99.90
54192;DHT22;40101;53.002;6.488;2023-12-07T10:34:09;4.80;99.90
54192;DHT22;40101;53.002;6.488;2023-12-07T10:36:35;4.60;99.90
54192;DHT22;40101;53.002;6.488;2023-12-07T10:39:01;4.50;99.90
54192;DHT22;40101;53.002;6.488;2023-12-07T10:41:33;4.50;99.90
54192;DHT22;40101;53.002;6.488;2023-12-07T10:44:04;4.30;99.90
54192;DHT22;40101;53.002;6.488;2023-12-07T10:46:33;4.10;99.90
54192;DHT22;40101;53.002;6.488;2023-12-07T10:49:07;3.90;99.90
54192;DHT22;40101;53.002;6.488;2023-12-07T10:51:56;3.70;99.90
54192;DHT22;40101;53.002;6.488;2023-12-07T10:54:28;3.40;99.90
54192;DHT22;40101;53.002;6.488;2023-12-07T10:56:56;3.10;99.90
54192;DHT22;40101;53.002;6.488;2023-12-07T10:59:22;2.80;99.90
54192;DHT22;40101;53.002;6.488;2023-12-07T11:01:51;2.70;99.90
54192;DHT22;40101;53.002;6.488;2023-12-07T11:04:18;2.60;99.90
54192;DHT22;40101;53.002;6.488;2023-12-07T11:06:49;2.50;99.90
54192;DHT22;40101;53.002;6.488;2023-12-07T11:09:27;2.40;99.90
54192;DHT22;40101;53.002;6.488;2023-12-07T11:12:20;2.30;99.90
54192;DHT22;40101;53.002;6.488;2023-12-07T11:14:50;2.20;99.90
54192;DHT22;40101;53.002;6.488;2023-12-07T11:17:16;2.00;99.90
54192;DHT22;40101;53.002;6.488;2023-12-07T11:19:44;2.00;99.90
54192;DHT22;40101;53.002;6.488;2023-12-07T11:22:13;1.80;99.90
54192;DHT22;40101;53.002;6.488;2023-12-07T11:24:57;1.90;99.90
54192;DHT22;40101;53.002;6.488;2023-12-07T11:27:24;1.70;99.90
54192;DHT22;40101;53.002;6.488;2023-12-07T11:29:51;1.50;99.90
54192;DHT22;40101;53.002;6.488;2023-12-07T11:32:17;1.40;99.90
54192;DHT22;40101;53.002;6.488;2023-12-07T11:34:43;1.40;99.90
54192;DHT22;40101;53.002;6.488;2023-12-07T11:37:10;1.40;99.90
54192;DHT22;40101;53.002;6.488;2023-12-07T11:42:20;1.40;99.90
54192;DHT22;40101;53.002;6.488;2023-12-07T11:44:50;1.50;99.90
54192;DHT22;40101;53.002;6.488;2023-12-07T11:47:17;1.50;99.90
54192;DHT22;40101;53.002;6.488;2023-12-07T11:49:44;1.50;99.90
54192;DHT22;40101;53.002;6.488;2023-12-07T11:52:19;1.40;99.90
54192;DHT22;40101;53.002;6.488;2023-12-07T11:54:45;1.40;99.90
54192;DHT22;40101;53.002;6.488;2023-12-07T11:57:12;1.60;99.90
54192;DHT22;40101;53.002;6.488;2023-12-07T11:59:38;1.40;99.90
54192;DHT22;40101;53.002;6.488;2023-12-07T12:02:04;1.40;99.90
54192;DHT22;40101;53.002;6.488;2023-12-07T12:04:30;1.60;99.90
54192;DHT22;40101;53.002;6.488;2023-12-07T12:06:55;1.40;99.90
54192;DHT22;40101;53.002;6.488;2023-12-07T12:09:23;1.40;99.90
54192;DHT22;40101;53.002;6.488;2023-12-07T12:11:50;1.30;99.90
54192;DHT22;40101;53.002;6.488;2023-12-07T12:14:16;1.40;99.90
54192;DHT22;40101;53.002;6.488;2023-12-07T12:16:46;1.30;99.90
54192;DHT22;40101;53.002;6.488;2023-12-07T12:19:12;1.20;99.90
54192;DHT22;40101;53.002;6.488;2023-12-07T12:21:40;1.20;99.90
54192;DHT22;40101;53.002;6.488;2023-12-07T12:24:06;1.20;99.90
54192;DHT22;40101;53.002;6.488;2023-12-07T12:26:36;1.20;99.90
54192;DHT22;40101;53.002;6.488;2023-12-07T12:29:05;1.20;99.90
54192;DHT22;40101;53.002;6.488;2023-12-07T12:31:32;1.20;99.90
54192;DHT22;40101;53.002;6.488;2023-12-07T12:34:00;1.20;99.90
54192;DHT22;40101;53.002;6.488;2023-12-07T12:36:26;1.30;99.90
54192;DHT22;40101;53.002;6.488;2023-12-07T12:38:53;1.20;99.90
54192;DHT22;40101;53.002;6.488;2023-12-07T12:41:20;1.30;99.90
54192;DHT22;40101;53.002;6.488;2023-12-07T12:43:46;1.20;99.90
54192;DHT22;40101;53.002;6.488;2023-12-07T12:46:15;1.20;99.90
54192;DHT22;40101;53.002;6.488;2023-12-07T12:48:54;1.20;99.90
54192;DHT22;40101;53.002;6.488;2023-12-07T12:51:21;1.30;99.90
54192;DHT22;40101;53.002;6.488;2023-12-07T12:53:48;1.20;99.90
54192;DHT22;40101;53.002;6.488;2023-12-07T12:56:18;1.20;99.90
54192;DHT22;40101;53.002;6.488;2023-12-07T12:58:45;1.40;99.90
54192;DHT22;40101;53.002;6.488;2023-12-07T13:01:11;1.30;99.90
54192;DHT22;40101;53.002;6.488;2023-12-07T13:03:37;1.30;99.90
54192;DHT22;40101;53.002;6.488;2023-12-07T13:06:03;1.30;99.90
54192;DHT22;40101;53.002;6.488;2023-12-07T13:08:29;1.30;99.90
54192;DHT22;40101;53.002;6.488;2023-12-07T13:10:54;1.40;99.90
54192;DHT22;40101;53.002;6.488;2023-12-07T13:13:20;1.40;99.90
54192;DHT22;40101;53.002;6.488;2023-12-07T13:15:46;1.40;99.90
54192;DHT22;40101;53.002;6.488;2023-12-07T13:18:11;1.40;99.90
54192;DHT22;40101;53.002;6.488;2023-12-07T13:20:38;1.40;99.90
54192;DHT22;40101;53.002;6.488;2023-12-07T13:23:04;1.30;99.90
54192;DHT22;40101;53.002;6.488;2023-12-07T13:25:30;1.40;99.90
54192;DHT22;40101;53.002;6.488;2023-12-07T13:27:56;1.30;99.90
54192;DHT22;40101;53.002;6.488;2023-12-07T13:30:21;1.40;99.90
54192;DHT22;40101;53.002;6.488;2023-12-07T13:32:47;1.30;99.90
54192;DHT22;40101;53.002;6.488;2023-12-07T13:35:13;1.30;99.90
54192;DHT22;40101;53.002;6.488;2023-12-07T13:37:39;1.30;99.90
54192;DHT22;40101;53.002;6.488;2023-12-07T13:40:05;1.30;99.90
54192;DHT22;40101;53.002;6.488;2023-12-07T13:42:36;1.30;99.90
54192;DHT22;40101;53.002;6.488;2023-12-07T13:45:02;1.40;99.90
54192;DHT22;40101;53.002;6.488;2023-12-07T13:47:29;1.40;99.90
54192;DHT22;40101;53.002;6.488;2023-12-07T13:49:58;1.40;99.90
54192;DHT22;40101;53.002;6.488;2023-12-07T13:52:25;1.30;99.90
54192;DHT22;40101;53.002;6.488;2023-12-07T13:54:50;1.30;99.90
54192;DHT22;40101;53.002;6.488;2023-12-07T13:57:16;1.30;99.90
54192;DHT22;40101;53.002;6.488;2023-12-07T13:59:42;1.30;99.90
54192;DHT22;40101;53.002;6.488;2023-12-07T14:02:07;1.40;99.90
54192;DHT22;40101;53.002;6.488;2023-12-07T14:04:34;1.40;99.90
54192;DHT22;40101;53.002;6.488;2023-12-07T14:07:14;1.40;99.90
54192;DHT22;40101;53.002;6.488;2023-12-07T14:09:42;1.40;99.90
54192;DHT22;40101;53.002;6.488;2023-12-07T14:12:08;1.50;99.90
54192;DHT22;40101;53.002;6.488;2023-12-07T14:14:36;1.50;99.90
54192;DHT22;40101;53.002;6.488;2023-12-07T14:17:02;1.50;99.90
54192;DHT22;40101;53.002;6.488;2023-12-07T14:19:28;1.50;99.90
54192;DHT22;40101;53.002;6.488;2023-12-07T14:21:54;1.50;99.90
54192;DHT22;40101;53.002;6.488;2023-12-07T14:24:22;1.50;99.90
54192;DHT22;40101;53.002;6.488;2023-12-07T14:26:48;1.50;99.90
54192;DHT22;40101;53.002;6.488;2023-12-07T14:29:14;1.50;99.90
54192;DHT22;40101;53.002;6.488;2023-12-07T14:31:44;1.50;99.90
54192;DHT22;40101;53.002;6.488;2023-12-07T14:34:10;1.50;99.90
54192;DHT22;40101;53.002;6.488;2023-12-07T14:36:36;1.60;99.90
54192;DHT22;40101;53.002;6.488;2023-12-07T14:39:04;1.60;99.90
54192;DHT22;40101;53.002;6.488;2023-12-07T14:41:32;1.60;99.90
54192;DHT22;40101;53.002;6.488;2023-12-07T14:43:58;1.60;99.90
54192;DHT22;40101;53.002;6.488;2023-12-07T14:46:23;1.70;99.90
54192;DHT22;40101;53.002;6.488;2023-12-07T14:48:49;1.70;99.90
54192;DHT22;40101;53.002;6.488;2023-12-07T14:51:18;1.80;99.90
54192;DHT22;40101;53.002;6.488;2023-12-07T14:53:47;1.80;99.90
54192;DHT22;40101;53.002;6.488;2023-12-07T14:56:13;1.80;99.90
54192;DHT22;40101;53.002;6.488;2023-12-07T14:58:39;1.90;99.90
54192;DHT22;40101;53.002;6.488;2023-12-07T15:01:08;1.80;99.90
54192;DHT22;40101;53.002;6.488;2023-12-07T15:03:34;2.00;99.90
54192;DHT22;40101;53.002;6.488;2023-12-07T15:06:00;1.90;99.90
54192;DHT22;40101;53.002;6.488;2023-12-07T15:08:27;1.80;99.90
54192;DHT22;40101;53.002;6.488;2023-12-07T15:10:52;1.90;99.90
54192;DHT22;40101;53.002;6.488;2023-12-07T15:13:20;1.90;99.90
54192;DHT22;40101;53.002;6.488;2023-12-07T15:15:46;1.90;99.90
54192;DHT22;40101;53.002;6.488;2023-12-07T15:18:11;1.90;99.90
54192;DHT22;40101;53.002;6.488;2023-12-07T15:20:37;2.00;99.90
54192;DHT22;40101;53.002;6.488;2023-12-07T15:23:03;2.00;99.90
54192;DHT22;40101;53.002;6.488;2023-12-07T15:25:29;2.00;99.90
54192;DHT22;40101;53.002;6.488;2023-12-07T15:27:55;2.00;99.90
54192;DHT22;40101;53.002;6.488;2023-12-07T15:30:21;2.10;99.90
54192;DHT22;40101;53.002;6.488;2023-12-07T15:32:51;2.10;99.90
54192;DHT22;40101;53.002;6.488;2023-12-07T15:35:16;2.10;99.90
54192;DHT22;40101;53.002;6.488;2023-12-07T15:37:43;2.10;99.90
54192;DHT22;40101;53.002;6.488;2023-12-07T15:40:09;2.10;99.90
54192;DHT22;40101;53.002;6.488;2023-12-07T15:42:38;2.20;99.90
54192;DHT22;40101;53.002;6.488;2023-12-07T15:45:07;2.20;99.90
54192;DHT22;40101;53.002;6.488;2023-12-07T15:47:34;2.20;99.90
54192;DHT22;40101;53.002;6.488;2023-12-07T15:50:00;2.20;99.90
54192;DHT22;40101;53.002;6.488;2023-12-07T15:52:26;2.20;99.90